sensor_id;sensor_type;location;lat;lon;timestamp;P1;durP1;ratioP1;P2;durP2;ratioP2
17363;SDS011;8799;43.594;13.526;2023-06-14T00:02:29;3.00;;;1.67;;
17363;SDS011;8799;43.594;13.526;2023-06-14T00:04:58;2.40;;;1.40;;
17363;SDS011;8799;43.594;13.526;2023-06-14T00:07:33;3.27;;;1.80;;
17363;SDS011;8799;43.594;13.526;2023-06-14T00:10:02;5.13;;;1.77;;
17363;SDS011;8799;43.594;13.526;2023-06-14T00:12:30;2.67;;;1.70;;
17363;SDS011;8799;43.594;13.526;2023-06-14T00:14:58;3.67;;;1.70;;
17363;SDS011;8799;43.594;13.526;2023-06-14T00:17:26;2.30;;;1.63;;
17363;SDS011;8799;43.594;13.526;2023-06-14T00:19:56;4.63;;;1.47;;
17363;SDS011;8799;43.594;13.526;2023-06-14T00:22:26;2.63;;;1.20;;
17363;SDS011;8799;43.594;13.526;2023-06-14T00:24:54;2.90;;;1.80;;
17363;SDS011;8799;43.594;13.526;2023-06-14T00:27:21;3.03;;;1.80;;
17363;SDS011;8799;43.594;13.526;2023-06-14T00:29:49;2.67;;;1.60;;
17363;SDS011;8799;43.594;13.526;2023-06-14T00:32:18;2.07;;;1.43;;
17363;SDS011;8799;43.594;13.526;2023-06-14T00:34:49;2.33;;;1.70;;
17363;SDS011;8799;43.594;13.526;2023-06-14T00:37:18;1.70;;;1.30;;
17363;SDS011;8799;43.594;13.526;2023-06-14T00:39:47;2.43;;;1.50;;
17363;SDS011;8799;43.594;13.526;2023-06-14T00:42:23;3.17;;;1.70;;
17363;SDS011;8799;43.594;13.526;2023-06-14T00:44:52;4.30;;;1.60;;
17363;SDS011;8799;43.594;13.526;2023-06-14T00:47:19;2.80;;;1.83;;
17363;SDS011;8799;43.594;13.526;2023-06-14T00:49:47;6.00;;;1.53;;
17363;SDS011;8799;43.594;13.526;2023-06-14T00:52:16;3.90;;;1.80;;
17363;SDS011;8799;43.594;13.526;2023-06-14T00:54:43;2.27;;;1.37;;
17363;SDS011;8799;43.594;13.526;2023-06-14T00:57:13;2.97;;;1.57;;
17363;SDS011;8799;43.594;13.526;2023-06-14T00:59:42;1.97;;;1.60;;
17363;SDS011;8799;43.594;13.526;2023-06-14T01:02:12;2.37;;;1.43;;
17363;SDS011;8799;43.594;13.526;2023-06-14T01:04:42;2.53;;;1.70;;
17363;SDS011;8799;43.594;13.526;2023-06-14T01:07:15;2.97;;;1.50;;
17363;SDS011;8799;43.594;13.526;2023-06-14T01:09:55;4.83;;;1.63;;
17363;SDS011;8799;43.594;13.526;2023-06-14T01:12:36;3.77;;;1.40;;
17363;SDS011;8799;43.594;13.526;2023-06-14T01:15:10;1.63;;;1.20;;
17363;SDS011;8799;43.594;13.526;2023-06-14T01:17:40;2.60;;;1.60;;
17363;SDS011;8799;43.594;13.526;2023-06-14T01:20:11;14.30;;;1.50;;
17363;SDS011;8799;43.594;13.526;2023-06-14T01:22:47;2.13;;;1.43;;
17363;SDS011;8799;43.594;13.526;2023-06-14T01:25:37;3.00;;;1.53;;
17363;SDS011;8799;43.594;13.526;2023-06-14T01:28:06;1.80;;;1.40;;
17363;SDS011;8799;43.594;13.526;2023-06-14T01:30:35;2.33;;;1.63;;
17363;SDS011;8799;43.594;13.526;2023-06-14T01:33:05;2.27;;;1.57;;
17363;SDS011;8799;43.594;13.526;2023-06-14T01:35:33;3.40;;;1.77;;
17363;SDS011;8799;43.594;13.526;2023-06-14T01:38:03;1.80;;;1.40;;
17363;SDS011;8799;43.594;13.526;2023-06-14T01:40:32;2.87;;;1.53;;
17363;SDS011;8799;43.594;13.526;2023-06-14T01:43:02;3.23;;;1.40;;
17363;SDS011;8799;43.594;13.526;2023-06-14T01:45:30;2.77;;;1.63;;
17363;SDS011;8799;43.594;13.526;2023-06-14T01:47:59;1.67;;;1.40;;
17363;SDS011;8799;43.594;13.526;2023-06-14T01:50:28;2.33;;;1.60;;
17363;SDS011;8799;43.594;13.526;2023-06-14T01:52:56;2.60;;;1.60;;
17363;SDS011;8799;43.594;13.526;2023-06-14T01:55:26;1.67;;;1.57;;
17363;SDS011;8799;43.594;13.526;2023-06-14T01:57:54;1.67;;;1.57;;
17363;SDS011;8799;43.594;13.526;2023-06-14T02:00:21;4.73;;;1.50;;
17363;SDS011;8799;43.594;13.526;2023-06-14T02:02:49;2.63;;;1.47;;
17363;SDS011;8799;43.594;13.526;2023-06-14T02:05:17;2.10;;;1.47;;
17363;SDS011;8799;43.594;13.526;2023-06-14T02:07:45;1.57;;;1.30;;
17363;SDS011;8799;43.594;13.526;2023-06-14T02:10:13;2.03;;;1.50;;
17363;SDS011;8799;43.594;13.526;2023-06-14T02:12:42;3.40;;;1.60;;
17363;SDS011;8799;43.594;13.526;2023-06-14T02:15:10;2.73;;;1.60;;
17363;SDS011;8799;43.594;13.526;2023-06-14T02:17:42;3.03;;;1.70;;
17363;SDS011;8799;43.594;13.526;2023-06-14T02:20:10;1.83;;;1.40;;
17363;SDS011;8799;43.594;13.526;2023-06-14T02:22:40;2.20;;;1.60;;
17363;SDS011;8799;43.594;13.526;2023-06-14T02:25:08;2.97;;;1.50;;
17363;SDS011;8799;43.594;13.526;2023-06-14T02:27:36;2.00;;;1.60;;
17363;SDS011;8799;43.594;13.526;2023-06-14T02:30:07;2.53;;;1.80;;
17363;SDS011;8799;43.594;13.526;2023-06-14T02:32:35;2.03;;;1.50;;
17363;SDS011;8799;43.594;13.526;2023-06-14T02:35:03;1.87;;;1.40;;
17363;SDS011;8799;43.594;13.526;2023-06-14T02:37:32;2.30;;;1.60;;
17363;SDS011;8799;43.594;13.526;2023-06-14T02:40:00;3.43;;;1.80;;
17363;SDS011;8799;43.594;13.526;2023-06-14T02:42:28;2.30;;;1.67;;
17363;SDS011;8799;43.594;13.526;2023-06-14T02:44:56;2.80;;;1.70;;
17363;SDS011;8799;43.594;13.526;2023-06-14T02:47:26;2.23;;;1.47;;
17363;SDS011;8799;43.594;13.526;2023-06-14T02:49:53;3.33;;;1.53;;
17363;SDS011;8799;43.594;13.526;2023-06-14T02:52:22;1.43;;;1.30;;
17363;SDS011;8799;43.594;13.526;2023-06-14T02:54:50;2.53;;;1.63;;
17363;SDS011;8799;43.594;13.526;2023-06-14T02:57:18;2.40;;;1.70;;
17363;SDS011;8799;43.594;13.526;2023-06-14T02:59:46;2.63;;;1.47;;
17363;SDS011;8799;43.594;13.526;2023-06-14T03:02:14;2.00;;;1.40;;
17363;SDS011;8799;43.594;13.526;2023-06-14T03:04:43;5.33;;;1.90;;
17363;SDS011;8799;43.594;13.526;2023-06-14T03:07:12;1.37;;;1.27;;
17363;SDS011;8799;43.594;13.526;2023-06-14T03:09:44;2.13;;;1.50;;
17363;SDS011;8799;43.594;13.526;2023-06-14T03:12:13;2.43;;;1.53;;
17363;SDS011;8799;43.594;13.526;2023-06-14T03:14:41;2.50;;;1.60;;
17363;SDS011;8799;43.594;13.526;2023-06-14T03:17:11;1.73;;;1.47;;
17363;SDS011;8799;43.594;13.526;2023-06-14T03:19:40;1.73;;;1.37;;
17363;SDS011;8799;43.594;13.526;2023-06-14T03:22:09;2.03;;;1.50;;
17363;SDS011;8799;43.594;13.526;2023-06-14T03:24:37;2.23;;;1.40;;
17363;SDS011;8799;43.594;13.526;2023-06-14T03:27:06;3.67;;;1.67;;
17363;SDS011;8799;43.594;13.526;2023-06-14T03:29:35;2.17;;;1.50;;
17363;SDS011;8799;43.594;13.526;2023-06-14T03:32:02;3.40;;;1.47;;
17363;SDS011;8799;43.594;13.526;2023-06-14T03:34:31;2.53;;;1.50;;
17363;SDS011;8799;43.594;13.526;2023-06-14T03:36:59;2.80;;;1.47;;
17363;SDS011;8799;43.594;13.526;2023-06-14T03:39:28;3.33;;;1.57;;
17363;SDS011;8799;43.594;13.526;2023-06-14T03:41:55;1.30;;;1.13;;
17363;SDS011;8799;43.594;13.526;2023-06-14T03:44:26;2.30;;;1.57;;
17363;SDS011;8799;43.594;13.526;2023-06-14T03:46:54;2.47;;;1.63;;
17363;SDS011;8799;43.594;13.526;2023-06-14T03:49:22;2.03;;;1.50;;
17363;SDS011;8799;43.594;13.526;2023-06-14T03:51:50;1.73;;;1.60;;
17363;SDS011;8799;43.594;13.526;2023-06-14T03:54:22;1.87;;;1.50;;
17363;SDS011;8799;43.594;13.526;2023-06-14T03:56:51;2.50;;;1.53;;
17363;SDS011;8799;43.594;13.526;2023-06-14T03:59:18;2.53;;;1.37;;
17363;SDS011;8799;43.594;13.526;2023-06-14T04:01:51;2.47;;;1.63;;
17363;SDS011;8799;43.594;13.526;2023-06-14T04:04:18;3.13;;;1.70;;
17363;SDS011;8799;43.594;13.526;2023-06-14T04:06:46;3.40;;;1.50;;
17363;SDS011;8799;43.594;13.526;2023-06-14T04:09:15;2.60;;;1.60;;
17363;SDS011;8799;43.594;13.526;2023-06-14T04:11:44;3.07;;;1.70;;
17363;SDS011;8799;43.594;13.526;2023-06-14T04:14:13;3.57;;;1.47;;
17363;SDS011;8799;43.594;13.526;2023-06-14T04:16:41;2.93;;;1.57;;
17363;SDS011;8799;43.594;13.526;2023-06-14T04:19:10;3.00;;;1.60;;
17363;SDS011;8799;43.594;13.526;2023-06-14T04:21:38;2.43;;;1.57;;
17363;SDS011;8799;43.594;13.526;2023-06-14T04:24:06;4.10;;;1.13;;
17363;SDS011;8799;43.594;13.526;2023-06-14T04:26:38;3.73;;;1.67;;
17363;SDS011;8799;43.594;13.526;2023-06-14T04:29:05;1.97;;;1.43;;
17363;SDS011;8799;43.594;13.526;2023-06-14T04:31:35;2.07;;;1.40;;
17363;SDS011;8799;43.594;13.526;2023-06-14T04:34:04;2.03;;;1.53;;
17363;SDS011;8799;43.594;13.526;2023-06-14T04:36:32;2.23;;;1.33;;
17363;SDS011;8799;43.594;13.526;2023-06-14T04:39:02;1.90;;;1.40;;
17363;SDS011;8799;43.594;13.526;2023-06-14T04:41:30;5.30;;;1.50;;
17363;SDS011;8799;43.594;13.526;2023-06-14T04:43:59;1.57;;;1.47;;
17363;SDS011;8799;43.594;13.526;2023-06-14T04:46:27;2.60;;;1.40;;
17363;SDS011;8799;43.594;13.526;2023-06-14T04:48:58;2.43;;;1.60;;
17363;SDS011;8799;43.594;13.526;2023-06-14T04:51:27;1.80;;;1.50;;
17363;SDS011;8799;43.594;13.526;2023-06-14T04:53:56;2.80;;;1.47;;
17363;SDS011;8799;43.594;13.526;2023-06-14T04:56:23;3.07;;;1.40;;
17363;SDS011;8799;43.594;13.526;2023-06-14T04:58:52;1.67;;;1.43;;
17363;SDS011;8799;43.594;13.526;2023-06-14T05:01:20;2.83;;;2.03;;
17363;SDS011;8799;43.594;13.526;2023-06-14T05:03:48;2.07;;;1.40;;
17363;SDS011;8799;43.594;13.526;2023-06-14T05:06:17;2.77;;;1.70;;
17363;SDS011;8799;43.594;13.526;2023-06-14T05:08:45;2.70;;;1.90;;
17363;SDS011;8799;43.594;13.526;2023-06-14T05:11:13;4.10;;;1.90;;
17363;SDS011;8799;43.594;13.526;2023-06-14T05:13:42;4.27;;;1.80;;
17363;SDS011;8799;43.594;13.526;2023-06-14T05:16:09;2.10;;;1.60;;
17363;SDS011;8799;43.594;13.526;2023-06-14T05:18:37;4.10;;;1.90;;
17363;SDS011;8799;43.594;13.526;2023-06-14T05:21:05;2.67;;;1.83;;
17363;SDS011;8799;43.594;13.526;2023-06-14T05:23:40;2.13;;;1.57;;
17363;SDS011;8799;43.594;13.526;2023-06-14T05:26:09;2.90;;;2.07;;
17363;SDS011;8799;43.594;13.526;2023-06-14T05:28:37;5.80;;;1.80;;
17363;SDS011;8799;43.594;13.526;2023-06-14T05:31:04;3.90;;;1.60;;
17363;SDS011;8799;43.594;13.526;2023-06-14T05:33:33;2.17;;;1.60;;
17363;SDS011;8799;43.594;13.526;2023-06-14T05:36:01;1.47;;;1.27;;
17363;SDS011;8799;43.594;13.526;2023-06-14T05:38:29;2.03;;;1.50;;
17363;SDS011;8799;43.594;13.526;2023-06-14T05:40:59;6.63;;;1.77;;
17363;SDS011;8799;43.594;13.526;2023-06-14T05:43:26;6.90;;;1.80;;
17363;SDS011;8799;43.594;13.526;2023-06-14T05:45:55;5.73;;;1.77;;
17363;SDS011;8799;43.594;13.526;2023-06-14T05:48:23;3.43;;;2.00;;
17363;SDS011;8799;43.594;13.526;2023-06-14T05:50:50;6.50;;;2.03;;
17363;SDS011;8799;43.594;13.526;2023-06-14T05:53:18;3.03;;;1.77;;
17363;SDS011;8799;43.594;13.526;2023-06-14T05:55:48;4.27;;;1.97;;
17363;SDS011;8799;43.594;13.526;2023-06-14T05:58:18;4.50;;;1.70;;
17363;SDS011;8799;43.594;13.526;2023-06-14T06:00:46;3.70;;;1.40;;
17363;SDS011;8799;43.594;13.526;2023-06-14T06:03:14;5.03;;;1.73;;
17363;SDS011;8799;43.594;13.526;2023-06-14T06:05:42;5.43;;;2.00;;
17363;SDS011;8799;43.594;13.526;2023-06-14T06:08:10;7.80;;;1.97;;
17363;SDS011;8799;43.594;13.526;2023-06-14T06:10:38;4.30;;;1.97;;
17363;SDS011;8799;43.594;13.526;2023-06-14T06:13:06;3.13;;;1.83;;
17363;SDS011;8799;43.594;13.526;2023-06-14T06:15:36;6.47;;;1.63;;
17363;SDS011;8799;43.594;13.526;2023-06-14T06:18:04;5.57;;;1.83;;
17363;SDS011;8799;43.594;13.526;2023-06-14T06:20:33;4.60;;;2.00;;
17363;SDS011;8799;43.594;13.526;2023-06-14T06:23:01;5.83;;;2.10;;
17363;SDS011;8799;43.594;13.526;2023-06-14T06:25:29;5.03;;;2.20;;
17363;SDS011;8799;43.594;13.526;2023-06-14T06:27:57;4.20;;;2.27;;
17363;SDS011;8799;43.594;13.526;2023-06-14T06:30:25;3.67;;;2.03;;
17363;SDS011;8799;43.594;13.526;2023-06-14T06:32:54;5.30;;;2.27;;
17363;SDS011;8799;43.594;13.526;2023-06-14T06:35:22;3.47;;;1.90;;
17363;SDS011;8799;43.594;13.526;2023-06-14T06:37:50;5.97;;;2.07;;
17363;SDS011;8799;43.594;13.526;2023-06-14T06:40:18;3.07;;;1.93;;
17363;SDS011;8799;43.594;13.526;2023-06-14T06:42:45;6.50;;;2.00;;
17363;SDS011;8799;43.594;13.526;2023-06-14T06:45:13;3.67;;;1.80;;
17363;SDS011;8799;43.594;13.526;2023-06-14T06:47:41;2.57;;;1.83;;
17363;SDS011;8799;43.594;13.526;2023-06-14T06:50:11;2.77;;;1.93;;
17363;SDS011;8799;43.594;13.526;2023-06-14T06:52:39;3.47;;;2.07;;
17363;SDS011;8799;43.594;13.526;2023-06-14T06:55:11;2.37;;;1.80;;
17363;SDS011;8799;43.594;13.526;2023-06-14T06:57:38;3.10;;;1.87;;
17363;SDS011;8799;43.594;13.526;2023-06-14T07:00:07;3.77;;;1.80;;
17363;SDS011;8799;43.594;13.526;2023-06-14T07:02:35;3.07;;;2.00;;
17363;SDS011;8799;43.594;13.526;2023-06-14T07:05:03;5.20;;;2.17;;
17363;SDS011;8799;43.594;13.526;2023-06-14T07:07:33;4.23;;;1.93;;
17363;SDS011;8799;43.594;13.526;2023-06-14T07:10:01;2.23;;;1.80;;
17363;SDS011;8799;43.594;13.526;2023-06-14T07:12:30;2.73;;;1.87;;
17363;SDS011;8799;43.594;13.526;2023-06-14T07:14:59;2.37;;;1.67;;
17363;SDS011;8799;43.594;13.526;2023-06-14T07:17:26;2.80;;;1.50;;
17363;SDS011;8799;43.594;13.526;2023-06-14T07:19:54;3.40;;;1.80;;
17363;SDS011;8799;43.594;13.526;2023-06-14T07:22:22;2.40;;;1.67;;
17363;SDS011;8799;43.594;13.526;2023-06-14T07:24:51;2.87;;;1.93;;
17363;SDS011;8799;43.594;13.526;2023-06-14T07:27:19;3.13;;;1.67;;
17363;SDS011;8799;43.594;13.526;2023-06-14T07:29:47;2.33;;;1.80;;
17363;SDS011;8799;43.594;13.526;2023-06-14T07:32:15;2.80;;;1.67;;
17363;SDS011;8799;43.594;13.526;2023-06-14T07:34:43;3.73;;;1.90;;
17363;SDS011;8799;43.594;13.526;2023-06-14T07:37:10;2.27;;;1.63;;
17363;SDS011;8799;43.594;13.526;2023-06-14T07:39:38;3.10;;;1.90;;
17363;SDS011;8799;43.594;13.526;2023-06-14T07:42:08;2.00;;;1.70;;
17363;SDS011;8799;43.594;13.526;2023-06-14T07:44:37;2.33;;;1.37;;
17363;SDS011;8799;43.594;13.526;2023-06-14T07:47:05;4.03;;;2.10;;
17363;SDS011;8799;43.594;13.526;2023-06-14T07:49:34;3.37;;;2.10;;
17363;SDS011;8799;43.594;13.526;2023-06-14T07:52:02;2.37;;;1.80;;
17363;SDS011;8799;43.594;13.526;2023-06-14T07:54:30;2.30;;;1.70;;
17363;SDS011;8799;43.594;13.526;2023-06-14T07:56:59;3.23;;;1.80;;
17363;SDS011;8799;43.594;13.526;2023-06-14T07:59:29;1.90;;;1.57;;
17363;SDS011;8799;43.594;13.526;2023-06-14T08:01:57;2.57;;;1.60;;
17363;SDS011;8799;43.594;13.526;2023-06-14T08:04:24;5.40;;;2.23;;
17363;SDS011;8799;43.594;13.526;2023-06-14T08:06:52;2.53;;;1.73;;
17363;SDS011;8799;43.594;13.526;2023-06-14T08:09:20;6.03;;;2.20;;
17363;SDS011;8799;43.594;13.526;2023-06-14T08:11:48;2.57;;;1.80;;
17363;SDS011;8799;43.594;13.526;2023-06-14T08:14:16;3.63;;;2.23;;
17363;SDS011;8799;43.594;13.526;2023-06-14T08:16:45;4.13;;;2.30;;
17363;SDS011;8799;43.594;13.526;2023-06-14T08:19:14;3.00;;;1.87;;
17363;SDS011;8799;43.594;13.526;2023-06-14T08:21:43;4.00;;;1.93;;
17363;SDS011;8799;43.594;13.526;2023-06-14T08:24:11;4.47;;;2.20;;
17363;SDS011;8799;43.594;13.526;2023-06-14T08:26:39;3.40;;;2.00;;
17363;SDS011;8799;43.594;13.526;2023-06-14T08:29:08;2.20;;;1.70;;
17363;SDS011;8799;43.594;13.526;2023-06-14T08:31:35;2.87;;;2.07;;
17363;SDS011;8799;43.594;13.526;2023-06-14T08:34:05;2.57;;;2.07;;
17363;SDS011;8799;43.594;13.526;2023-06-14T08:36:33;3.10;;;1.90;;
17363;SDS011;8799;43.594;13.526;2023-06-14T08:39:02;2.03;;;1.63;;
17363;SDS011;8799;43.594;13.526;2023-06-14T08:41:30;3.27;;;2.10;;
17363;SDS011;8799;43.594;13.526;2023-06-14T08:43:59;3.33;;;1.90;;
17363;SDS011;8799;43.594;13.526;2023-06-14T08:46:27;3.87;;;2.23;;
17363;SDS011;8799;43.594;13.526;2023-06-14T08:48:59;3.70;;;2.00;;
17363;SDS011;8799;43.594;13.526;2023-06-14T08:51:30;2.60;;;1.93;;
17363;SDS011;8799;43.594;13.526;2023-06-14T08:54:00;2.80;;;1.70;;
17363;SDS011;8799;43.594;13.526;2023-06-14T08:56:29;2.50;;;1.83;;
17363;SDS011;8799;43.594;13.526;2023-06-14T08:58:57;2.20;;;1.57;;
17363;SDS011;8799;43.594;13.526;2023-06-14T09:01:29;2.73;;;2.00;;
17363;SDS011;8799;43.594;13.526;2023-06-14T09:04:00;2.87;;;1.90;;
17363;SDS011;8799;43.594;13.526;2023-06-14T09:06:32;4.57;;;1.90;;
17363;SDS011;8799;43.594;13.526;2023-06-14T09:09:02;3.37;;;1.90;;
17363;SDS011;8799;43.594;13.526;2023-06-14T09:11:30;4.03;;;2.00;;
17363;SDS011;8799;43.594;13.526;2023-06-14T09:14:00;2.40;;;1.80;;
17363;SDS011;8799;43.594;13.526;2023-06-14T09:16:29;2.83;;;1.80;;
17363;SDS011;8799;43.594;13.526;2023-06-14T09:18:59;2.70;;;1.87;;
17363;SDS011;8799;43.594;13.526;2023-06-14T09:21:27;2.73;;;1.70;;
17363;SDS011;8799;43.594;13.526;2023-06-14T09:24:02;2.63;;;1.77;;
17363;SDS011;8799;43.594;13.526;2023-06-14T09:26:31;2.83;;;1.90;;
17363;SDS011;8799;43.594;13.526;2023-06-14T09:28:58;3.03;;;2.10;;
17363;SDS011;8799;43.594;13.526;2023-06-14T09:31:26;2.80;;;1.80;;
17363;SDS011;8799;43.594;13.526;2023-06-14T09:33:56;2.33;;;1.93;;
17363;SDS011;8799;43.594;13.526;2023-06-14T09:36:25;3.47;;;2.00;;
17363;SDS011;8799;43.594;13.526;2023-06-14T09:38:52;2.57;;;1.77;;
17363;SDS011;8799;43.594;13.526;2023-06-14T09:41:23;2.53;;;1.60;;
17363;SDS011;8799;43.594;13.526;2023-06-14T09:43:58;3.33;;;1.50;;
17363;SDS011;8799;43.594;13.526;2023-06-14T09:46:28;3.67;;;1.73;;
17363;SDS011;8799;43.594;13.526;2023-06-14T09:48:57;2.97;;;2.00;;
17363;SDS011;8799;43.594;13.526;2023-06-14T09:51:25;3.53;;;2.03;;
17363;SDS011;8799;43.594;13.526;2023-06-14T09:53:55;2.80;;;1.83;;
17363;SDS011;8799;43.594;13.526;2023-06-14T09:56:28;4.00;;;1.93;;
17363;SDS011;8799;43.594;13.526;2023-06-14T09:58:57;4.60;;;2.17;;
17363;SDS011;8799;43.594;13.526;2023-06-14T10:01:26;2.73;;;2.00;;
17363;SDS011;8799;43.594;13.526;2023-06-14T10:03:58;4.13;;;2.10;;
17363;SDS011;8799;43.594;13.526;2023-06-14T10:06:30;3.20;;;2.10;;
17363;SDS011;8799;43.594;13.526;2023-06-14T10:08:59;2.20;;;1.67;;
17363;SDS011;8799;43.594;13.526;2023-06-14T10:11:29;2.30;;;1.90;;
17363;SDS011;8799;43.594;13.526;2023-06-14T10:13:57;2.60;;;1.77;;
17363;SDS011;8799;43.594;13.526;2023-06-14T10:16:28;2.77;;;2.23;;
17363;SDS011;8799;43.594;13.526;2023-06-14T10:19:01;3.03;;;2.03;;
17363;SDS011;8799;43.594;13.526;2023-06-14T10:21:36;2.67;;;2.10;;
17363;SDS011;8799;43.594;13.526;2023-06-14T10:24:10;3.90;;;2.17;;
17363;SDS011;8799;43.594;13.526;2023-06-14T10:26:51;4.23;;;2.40;;
17363;SDS011;8799;43.594;13.526;2023-06-14T10:29:20;4.10;;;2.40;;
17363;SDS011;8799;43.594;13.526;2023-06-14T10:31:49;3.53;;;2.00;;
17363;SDS011;8799;43.594;13.526;2023-06-14T10:34:21;2.30;;;1.90;;
17363;SDS011;8799;43.594;13.526;2023-06-14T10:36:59;3.10;;;2.23;;
17363;SDS011;8799;43.594;13.526;2023-06-14T10:39:31;2.43;;;1.87;;
17363;SDS011;8799;43.594;13.526;2023-06-14T10:42:05;3.90;;;2.30;;
17363;SDS011;8799;43.594;13.526;2023-06-14T10:44:43;4.50;;;2.07;;
17363;SDS011;8799;43.594;13.526;2023-06-14T10:47:22;3.73;;;2.30;;
17363;SDS011;8799;43.594;13.526;2023-06-14T10:49:52;3.37;;;1.90;;
17363;SDS011;8799;43.594;13.526;2023-06-14T10:52:22;3.33;;;2.13;;
17363;SDS011;8799;43.594;13.526;2023-06-14T10:55:07;3.30;;;2.03;;
17363;SDS011;8799;43.594;13.526;2023-06-14T10:57:38;3.83;;;2.13;;
17363;SDS011;8799;43.594;13.526;2023-06-14T11:00:08;3.50;;;2.00;;
17363;SDS011;8799;43.594;13.526;2023-06-14T11:05:48;4.10;;;1.73;;
17363;SDS011;8799;43.594;13.526;2023-06-14T11:11:29;3.73;;;2.07;;
17363;SDS011;8799;43.594;13.526;2023-06-14T11:14:01;4.43;;;2.33;;
17363;SDS011;8799;43.594;13.526;2023-06-14T11:16:29;3.27;;;2.17;;
17363;SDS011;8799;43.594;13.526;2023-06-14T11:18:59;3.07;;;2.07;;
17363;SDS011;8799;43.594;13.526;2023-06-14T11:21:28;2.77;;;2.10;;
17363;SDS011;8799;43.594;13.526;2023-06-14T11:23:58;3.00;;;2.00;;
17363;SDS011;8799;43.594;13.526;2023-06-14T11:26:27;2.33;;;1.97;;
17363;SDS011;8799;43.594;13.526;2023-06-14T11:28:56;3.37;;;2.10;;
17363;SDS011;8799;43.594;13.526;2023-06-14T11:31:27;2.87;;;2.00;;
17363;SDS011;8799;43.594;13.526;2023-06-14T11:33:55;5.50;;;2.20;;
17363;SDS011;8799;43.594;13.526;2023-06-14T11:36:26;2.87;;;2.03;;
17363;SDS011;8799;43.594;13.526;2023-06-14T11:38:59;3.47;;;1.90;;
17363;SDS011;8799;43.594;13.526;2023-06-14T11:41:37;3.17;;;2.17;;
17363;SDS011;8799;43.594;13.526;2023-06-14T11:44:06;2.60;;;1.77;;
17363;SDS011;8799;43.594;13.526;2023-06-14T11:46:36;3.43;;;1.80;;
17363;SDS011;8799;43.594;13.526;2023-06-14T11:49:04;2.13;;;1.83;;
17363;SDS011;8799;43.594;13.526;2023-06-14T11:51:32;2.40;;;1.77;;
17363;SDS011;8799;43.594;13.526;2023-06-14T11:54:00;3.17;;;2.30;;
17363;SDS011;8799;43.594;13.526;2023-06-14T11:56:29;3.10;;;2.10;;
17363;SDS011;8799;43.594;13.526;2023-06-14T11:58:58;2.53;;;1.90;;
17363;SDS011;8799;43.594;13.526;2023-06-14T12:01:26;2.63;;;1.83;;
17363;SDS011;8799;43.594;13.526;2023-06-14T12:03:58;3.03;;;2.03;;
17363;SDS011;8799;43.594;13.526;2023-06-14T12:06:27;2.27;;;1.83;;
17363;SDS011;8799;43.594;13.526;2023-06-14T12:08:58;2.57;;;2.10;;
17363;SDS011;8799;43.594;13.526;2023-06-14T12:11:31;3.43;;;1.87;;
17363;SDS011;8799;43.594;13.526;2023-06-14T12:14:00;2.90;;;1.90;;
17363;SDS011;8799;43.594;13.526;2023-06-14T12:16:30;3.00;;;2.07;;
17363;SDS011;8799;43.594;13.526;2023-06-14T12:19:07;2.30;;;1.70;;
17363;SDS011;8799;43.594;13.526;2023-06-14T12:21:37;3.50;;;2.10;;
17363;SDS011;8799;43.594;13.526;2023-06-14T12:24:06;2.30;;;1.90;;
17363;SDS011;8799;43.594;13.526;2023-06-14T12:26:37;2.63;;;1.93;;
17363;SDS011;8799;43.594;13.526;2023-06-14T12:29:06;2.63;;;2.00;;
17363;SDS011;8799;43.594;13.526;2023-06-14T12:31:34;2.40;;;1.80;;
17363;SDS011;8799;43.594;13.526;2023-06-14T12:34:03;3.87;;;1.83;;
17363;SDS011;8799;43.594;13.526;2023-06-14T12:36:31;3.20;;;1.97;;
17363;SDS011;8799;43.594;13.526;2023-06-14T12:38:59;2.50;;;1.90;;
17363;SDS011;8799;43.594;13.526;2023-06-14T12:41:27;2.93;;;1.93;;
17363;SDS011;8799;43.594;13.526;2023-06-14T12:43:54;3.70;;;1.60;;
17363;SDS011;8799;43.594;13.526;2023-06-14T12:46:24;3.60;;;2.07;;
17363;SDS011;8799;43.594;13.526;2023-06-14T12:48:56;3.30;;;1.67;;
17363;SDS011;8799;43.594;13.526;2023-06-14T12:51:26;2.27;;;1.80;;
17363;SDS011;8799;43.594;13.526;2023-06-14T12:53:54;1.93;;;1.60;;
17363;SDS011;8799;43.594;13.526;2023-06-14T12:56:22;2.10;;;1.73;;
17363;SDS011;8799;43.594;13.526;2023-06-14T12:58:49;3.47;;;1.97;;
17363;SDS011;8799;43.594;13.526;2023-06-14T13:01:17;2.37;;;1.63;;
17363;SDS011;8799;43.594;13.526;2023-06-14T13:03:45;2.37;;;1.90;;
17363;SDS011;8799;43.594;13.526;2023-06-14T13:06:15;2.63;;;2.00;;
17363;SDS011;8799;43.594;13.526;2023-06-14T13:08:44;1.93;;;1.70;;
17363;SDS011;8799;43.594;13.526;2023-06-14T13:11:12;2.33;;;2.10;;
17363;SDS011;8799;43.594;13.526;2023-06-14T13:13:40;2.07;;;1.63;;
17363;SDS011;8799;43.594;13.526;2023-06-14T13:16:08;2.60;;;1.73;;
17363;SDS011;8799;43.594;13.526;2023-06-14T13:18:36;3.13;;;2.17;;
17363;SDS011;8799;43.594;13.526;2023-06-14T13:21:04;3.27;;;2.20;;
17363;SDS011;8799;43.594;13.526;2023-06-14T13:23:32;2.90;;;2.00;;
17363;SDS011;8799;43.594;13.526;2023-06-14T13:26:02;2.17;;;1.77;;
17363;SDS011;8799;43.594;13.526;2023-06-14T13:28:30;3.57;;;2.13;;
17363;SDS011;8799;43.594;13.526;2023-06-14T13:30:58;2.47;;;1.90;;
17363;SDS011;8799;43.594;13.526;2023-06-14T13:33:26;2.50;;;2.03;;
17363;SDS011;8799;43.594;13.526;2023-06-14T13:35:54;1.90;;;1.63;;
17363;SDS011;8799;43.594;13.526;2023-06-14T13:38:23;2.30;;;1.83;;
17363;SDS011;8799;43.594;13.526;2023-06-14T13:40:51;2.70;;;2.10;;
17363;SDS011;8799;43.594;13.526;2023-06-14T13:43:20;2.37;;;1.90;;
17363;SDS011;8799;43.594;13.526;2023-06-14T13:45:48;3.10;;;2.17;;
17363;SDS011;8799;43.594;13.526;2023-06-14T13:48:16;3.13;;;2.03;;
17363;SDS011;8799;43.594;13.526;2023-06-14T13:50:45;3.63;;;2.40;;
17363;SDS011;8799;43.594;13.526;2023-06-14T13:53:12;3.30;;;2.10;;
17363;SDS011;8799;43.594;13.526;2023-06-14T13:55:42;2.60;;;1.90;;
17363;SDS011;8799;43.594;13.526;2023-06-14T13:58:10;3.20;;;2.00;;
17363;SDS011;8799;43.594;13.526;2023-06-14T14:00:39;2.23;;;2.00;;
17363;SDS011;8799;43.594;13.526;2023-06-14T14:03:06;3.10;;;2.10;;
17363;SDS011;8799;43.594;13.526;2023-06-14T14:05:34;3.20;;;2.13;;
17363;SDS011;8799;43.594;13.526;2023-06-14T14:08:03;2.57;;;1.90;;
17363;SDS011;8799;43.594;13.526;2023-06-14T14:10:35;2.83;;;1.80;;
17363;SDS011;8799;43.594;13.526;2023-06-14T14:13:03;4.33;;;2.20;;
17363;SDS011;8799;43.594;13.526;2023-06-14T14:15:31;2.87;;;1.90;;
17363;SDS011;8799;43.594;13.526;2023-06-14T14:18:01;4.03;;;2.30;;
17363;SDS011;8799;43.594;13.526;2023-06-14T14:20:29;4.17;;;2.20;;
17363;SDS011;8799;43.594;13.526;2023-06-14T14:22:57;3.03;;;2.10;;
17363;SDS011;8799;43.594;13.526;2023-06-14T14:25:25;2.67;;;1.87;;
17363;SDS011;8799;43.594;13.526;2023-06-14T14:27:53;2.87;;;1.90;;
17363;SDS011;8799;43.594;13.526;2023-06-14T14:30:21;3.40;;;2.30;;
17363;SDS011;8799;43.594;13.526;2023-06-14T14:32:49;3.07;;;2.07;;
17363;SDS011;8799;43.594;13.526;2023-06-14T14:35:19;2.53;;;2.00;;
17363;SDS011;8799;43.594;13.526;2023-06-14T14:37:47;3.27;;;2.10;;
17363;SDS011;8799;43.594;13.526;2023-06-14T14:40:16;2.17;;;1.90;;
17363;SDS011;8799;43.594;13.526;2023-06-14T14:42:43;3.07;;;2.13;;
17363;SDS011;8799;43.594;13.526;2023-06-14T14:45:11;2.97;;;2.03;;
17363;SDS011;8799;43.594;13.526;2023-06-14T14:47:39;2.97;;;2.30;;
17363;SDS011;8799;43.594;13.526;2023-06-14T14:50:07;2.40;;;2.13;;
17363;SDS011;8799;43.594;13.526;2023-06-14T14:52:37;3.77;;;2.17;;
17363;SDS011;8799;43.594;13.526;2023-06-14T14:55:06;2.90;;;2.10;;
17363;SDS011;8799;43.594;13.526;2023-06-14T14:57:34;2.53;;;2.17;;
17363;SDS011;8799;43.594;13.526;2023-06-14T15:00:03;2.90;;;2.10;;
17363;SDS011;8799;43.594;13.526;2023-06-14T15:02:33;2.17;;;1.80;;
17363;SDS011;8799;43.594;13.526;2023-06-14T15:05:01;2.90;;;2.20;;
17363;SDS011;8799;43.594;13.526;2023-06-14T15:07:29;3.57;;;2.10;;